createdAt,value
2022-08-07T00:03:19.564Z,576
2022-08-07T00:11:40.046Z,485
2022-08-07T00:20:39.580Z,537
2022-08-07T00:31:01.960Z,590
2022-08-07T00:39:04.262Z,712
2022-08-07T00:48:44.283Z,791
2022-08-07T00:58:35.669Z,934
2022-08-07T01:06:35.718Z,828
2022-08-07T01:16:00.447Z,787
2022-08-07T01:24:14.057Z,655
2022-08-07T01:33:07.196Z,634
2022-08-07T01:40:58.350Z,587
2022-08-07T01:50:35.894Z,575
2022-08-07T02:00:16.867Z,705
2022-08-07T02:10:27.809Z,662
2022-08-07T02:19:02.902Z,673
2022-08-07T02:27:51.162Z,722
2022-08-07T02:37:03.472Z,738
2022-08-07T02:45:57.757Z,796
2022-08-07T02:54:34.359Z,846
2022-08-07T03:02:54.219Z,755
2022-08-07T03:11:06.074Z,706
2022-08-07T03:19:09.334Z,791
2022-08-07T03:27:58.920Z,665
2022-08-07T03:36:25.869Z,707
2022-08-07T03:44:42.889Z,734
2022-08-07T03:53:50.341Z,781
2022-08-07T04:03:55.434Z,708
2022-08-07T04:14:09.803Z,693
2022-08-07T04:24:38.920Z,737
2022-08-07T04:33:42.992Z,833
2022-08-07T04:42:09.400Z,705
2022-08-07T04:51:59.985Z,800
2022-08-07T05:04:44.071Z,668
2022-08-07T05:15:36.782Z,750
2022-08-07T05:24:24.521Z,727
2022-08-07T05:34:01.643Z,612
2022-08-07T05:44:08.857Z,518
2022-08-07T05:53:07.736Z,549
2022-08-07T06:02:54.441Z,558
2022-08-07T06:12:34.270Z,525
2022-08-07T06:22:50.721Z,597
2022-08-07T06:32:38.967Z,605
2022-08-07T06:42:40.596Z,550
2022-08-07T06:51:43.487Z,518
2022-08-07T07:04:28.793Z,350
2022-08-07T07:21:04.959Z,459
2022-08-07T07:33:48.992Z,368
2022-08-07T07:42:42.297Z,362
2022-08-07T07:53:56.803Z,421
2022-08-07T08:04:06.692Z,388
2022-08-07T08:12:52.796Z,350
2022-08-07T08:24:01.210Z,407
2022-08-07T08:33:15.367Z,387
2022-08-07T08:41:58.004Z,418
2022-08-07T08:50:39.911Z,430
2022-08-07T08:59:08.717Z,368
2022-08-07T09:07:27.740Z,383
2022-08-07T09:16:59.087Z,298
2022-08-07T09:30:06.805Z,334
2022-08-07T09:38:56.988Z,264
2022-08-07T09:52:48.533Z,321
2022-08-07T10:01:50.859Z,294
2022-08-07T10:12:00.814Z,292
2022-08-07T10:20:30.651Z,361
2022-08-07T10:29:30.273Z,365
2022-08-07T10:38:15.785Z,223
2022-08-07T10:47:26.671Z,292
2022-08-07T10:56:20.733Z,275
2022-08-07T11:05:10.599Z,276
2022-08-07T11:15:31.690Z,275
2022-08-07T11:23:43.713Z,264
2022-08-07T11:32:27.668Z,217
2022-08-07T11:41:18.088Z,218
2022-08-07T11:50:56.429Z,355
2022-08-07T12:00:53.759Z,282
2022-08-07T12:11:00.815Z,259
2022-08-07T12:19:56.277Z,252
2022-08-07T12:30:24.445Z,220
2022-08-07T12:39:42.222Z,261
2022-08-07T12:48:28.108Z,253
2022-08-07T12:58:39.413Z,203
2022-08-07T13:08:47.475Z,260
2022-08-07T13:17:52.591Z,270
2022-08-07T13:27:10.414Z,332
2022-08-07T13:37:58.877Z,256
2022-08-07T13:48:51.830Z,304
2022-08-07T13:59:13.007Z,265
2022-08-07T14:08:06.824Z,305
2022-08-07T14:16:49.924Z,259
2022-08-07T16:19:42.340Z,260
2022-08-07T16:30:44.116Z,346
2022-08-07T16:41:41.335Z,313
2022-08-07T16:55:11.586Z,288
2022-08-07T17:04:34.931Z,332
2022-08-07T17:15:43.622Z,263
2022-08-07T17:24:32.200Z,303
2022-08-07T17:33:39.317Z,286
2022-08-07T17:45:58.573Z,259
2022-08-07T17:55:54.270Z,308
2022-08-07T18:04:40.537Z,293
2022-08-07T18:14:51.441Z,227
2022-08-07T18:27:06.529Z,278
2022-08-07T18:36:33.070Z,227
2022-08-07T18:48:38.160Z,164
2022-08-07T19:01:07.024Z,248
2022-08-07T19:11:35.521Z,231
2022-08-07T19:21:52.376Z,259
2022-08-07T19:35:10.191Z,283
2022-08-07T19:45:08.380Z,186
2022-08-07T19:56:55.253Z,227
2022-08-07T20:06:35.395Z,251
2022-08-07T20:17:10.208Z,331
2022-08-07T20:25:50.837Z,240
2022-08-07T20:34:50.988Z,296
2022-08-07T20:43:29.488Z,270
2022-08-07T20:54:02.718Z,283
2022-08-07T21:02:30.830Z,280
2022-08-07T21:11:07.538Z,302
2022-08-07T21:21:21.360Z,255
2022-08-07T21:29:23.250Z,293
2022-08-07T21:38:35.516Z,297
2022-08-07T21:48:36.362Z,352
2022-08-07T21:57:31.691Z,357
2022-08-07T22:06:29.084Z,294
2022-08-07T22:14:34.662Z,306
2022-08-07T22:24:32.616Z,310
2022-08-07T22:33:10.541Z,370
2022-08-07T22:42:02.708Z,303
2022-08-07T22:51:44.852Z,365
2022-08-07T23:00:09.042Z,368
2022-08-07T23:11:15.700Z,367
2022-08-07T23:22:10.701Z,383
2022-08-07T23:32:49.774Z,427
2022-08-07T23:43:17.352Z,374
2022-08-07T23:52:57.310Z,372
